createdAt,value
2023-03-14T00:00:49.905Z,99442.88
2023-03-14T00:03:52.793Z,99436.91
2023-03-14T00:06:55.582Z,99434.97
2023-03-14T00:09:58.434Z,99428.91
2023-03-14T00:13:01.336Z,99424.69
2023-03-14T00:16:11.241Z,99422.28
2023-03-14T00:19:14.754Z,99422.09
2023-03-14T00:22:17.619Z,99412.13
2023-03-14T00:25:20.650Z,99397.78
2023-03-14T00:28:23.791Z,99399.09
2023-03-14T00:31:27.049Z,99388.09
2023-03-14T00:34:31.497Z,99388.22
2023-03-14T00:37:34.280Z,99390.94
2023-03-14T00:40:40.751Z,99382.91
2023-03-14T00:43:44.486Z,99373.84
2023-03-14T00:46:47.384Z,99375.16
2023-03-14T00:49:53.990Z,99372.31
2023-03-14T00:52:58.438Z,99373.03
2023-03-14T00:56:05.027Z,99361.69
2023-03-14T00:59:08.012Z,99346.56
2023-03-14T01:02:11.238Z,99347.47
2023-03-14T01:05:14.304Z,99341.47
2023-03-14T01:08:19.004Z,99324.66
2023-03-14T01:11:25.532Z,99317.63
2023-03-14T01:14:28.554Z,99306.59
2023-03-14T01:17:31.548Z,99302.16
2023-03-14T01:20:34.865Z,99304.28
2023-03-14T01:23:37.872Z,99288.59
2023-03-14T01:26:40.827Z,99285.06
2023-03-14T01:29:45.359Z,99273.84
2023-03-14T01:32:48.533Z,99264.66
2023-03-14T01:35:51.898Z,99256.66
2023-03-14T01:38:55.066Z,99247.00
2023-03-14T01:42:01.649Z,99242.63
2023-03-14T01:45:05.448Z,99236.56
2023-03-14T01:48:11.073Z,99238.53
2023-03-14T01:51:39.097Z,99239.13
2023-03-14T01:54:56.219Z,99225.22
2023-03-14T01:58:04.606Z,99222.19
2023-03-14T02:01:09.741Z,99220.03
2023-03-14T02:04:13.920Z,99244.38
2023-03-14T02:07:37.701Z,99229.53
2023-03-14T02:10:55.826Z,99225.91
2023-03-14T02:14:30.487Z,99211.25
2023-03-14T02:17:57.400Z,99207.66
2023-03-14T02:21:46.452Z,99194.19
2023-03-14T02:25:13.326Z,99191.88
2023-03-14T02:28:17.136Z,99189.16
2023-03-14T02:31:22.366Z,99185.66
2023-03-14T02:34:26.917Z,99189.44
2023-03-14T02:37:37.643Z,99183.09
2023-03-14T02:40:42.153Z,99183.44
2023-03-14T02:43:45.136Z,99177.53
2023-03-14T02:46:49.207Z,99179.81
2023-03-14T02:49:56.176Z,99177.09
2023-03-14T02:52:59.366Z,99172.13
2023-03-14T02:56:02.601Z,99161.22
2023-03-14T02:59:07.806Z,99165.63
2023-03-14T03:02:20.946Z,99150.78
2023-03-14T03:05:23.839Z,99154.41
2023-03-14T03:08:28.319Z,99166.81
2023-03-14T03:11:32.871Z,99170.44
2023-03-14T03:14:36.068Z,99166.09
2023-03-14T03:17:41.068Z,99163.47
2023-03-14T03:20:44.274Z,99167.72
2023-03-14T03:23:47.162Z,99151.97
2023-03-14T03:26:50.102Z,99158.31
2023-03-14T03:29:52.976Z,99146.81
2023-03-14T03:32:55.933Z,99139.53
2023-03-14T03:35:58.941Z,99145.59
2023-03-14T03:39:07.634Z,99127.13
2023-03-14T03:42:11.273Z,99119.25
2023-03-14T03:45:14.402Z,99112.00
2023-03-14T03:48:26.468Z,99108.81
2023-03-14T03:51:29.527Z,99118.97
2023-03-14T03:54:32.901Z,99130.75
2023-03-14T03:57:36.618Z,99121.50
2023-03-14T04:00:40.078Z,99118.66
2023-03-14T04:03:43.495Z,99139.22
2023-03-14T04:06:46.925Z,99123.91
2023-03-14T04:09:50.957Z,99121.00
2023-03-14T04:13:14.787Z,99137.63
2023-03-14T04:16:23.413Z,99141.53
2023-03-14T04:19:28.731Z,99136.81
2023-03-14T04:22:33.151Z,99137.97
2023-03-14T04:25:36.682Z,99128.81
2023-03-14T04:28:41.610Z,99127.31
2023-03-14T04:31:45.727Z,99127.03
2023-03-14T04:34:48.810Z,99119.56
2023-03-14T04:37:53.024Z,99127.72
2023-03-14T04:40:57.162Z,99122.09
2023-03-14T04:44:06.024Z,99120.81
2023-03-14T04:47:10.215Z,99111.13
2023-03-14T04:50:15.664Z,99111.91
2023-03-14T04:53:19.699Z,99122.72
2023-03-14T04:56:24.647Z,99137.63
2023-03-14T04:59:27.942Z,99133.16
2023-03-14T05:02:36.893Z,99117.47
2023-03-14T05:06:12.607Z,99140.94
2023-03-14T05:09:34.471Z,99153.69
2023-03-14T05:12:57.200Z,99154.91
2023-03-14T05:16:18.759Z,99155.66
2023-03-14T05:20:00.607Z,99152.47
2023-03-14T05:23:22.254Z,99176.56
2023-03-14T05:26:51.709Z,99175.97
2023-03-14T05:30:16.107Z,99180.91
2023-03-14T05:33:44.587Z,99185.78
2023-03-14T05:37:06.133Z,99187.00
2023-03-14T05:40:20.253Z,99185.19
2023-03-14T05:43:49.816Z,99194.41
2023-03-14T05:47:16.258Z,99164.28
2023-03-14T05:50:38.012Z,99171.72
2023-03-14T05:53:58.642Z,99166.56
2023-03-14T05:57:20.010Z,99168.38
2023-03-14T06:00:41.617Z,99156.88
2023-03-14T06:03:56.469Z,99160.97
2023-03-14T06:06:59.751Z,99160.06
2023-03-14T06:10:02.890Z,99162.94
2023-03-14T06:13:06.696Z,99170.50
2023-03-14T06:16:10.955Z,99166.88
2023-03-14T06:19:14.042Z,99155.06
2023-03-14T06:22:18.671Z,99156.13
2023-03-14T06:25:22.689Z,99155.34
2023-03-14T06:28:27.658Z,99147.03
2023-03-14T06:31:35.325Z,99144.16
2023-03-14T06:34:41.846Z,99146.41
2023-03-14T06:37:45.227Z,99142.59
2023-03-14T06:40:49.089Z,99136.13
2023-03-14T06:43:59.044Z,99125.81
2023-03-14T06:47:03.651Z,99136.47
2023-03-14T06:50:08.879Z,99124.41
2023-03-14T06:53:15.223Z,99119.97
2023-03-14T06:56:19.913Z,99136.53
2023-03-14T06:59:23.590Z,99122.66
2023-03-14T07:02:39.812Z,99119.75
2023-03-14T07:05:53.482Z,99133.44
2023-03-14T07:08:57.345Z,99130.72
2023-03-14T07:12:00.820Z,99156.81
2023-03-14T07:15:17.642Z,99166.44
2023-03-14T07:18:28.744Z,99185.25
2023-03-14T07:21:33.833Z,99200.06
2023-03-14T07:24:37.338Z,99181.47
2023-03-14T07:27:40.674Z,99185.16
2023-03-14T07:30:48.251Z,99180.00
2023-03-14T07:34:00.063Z,99174.91
2023-03-14T07:37:07.407Z,99173.97
2023-03-14T07:40:13.747Z,99169.03
2023-03-14T07:43:17.276Z,99159.88
2023-03-14T07:46:25.005Z,99154.13
2023-03-14T07:49:28.256Z,99173.78
2023-03-14T07:52:31.215Z,99165.06
2023-03-14T07:55:34.167Z,99161.28
2023-03-14T07:58:37.086Z,99168.38
2023-03-14T08:01:39.993Z,99159.41
2023-03-14T08:04:43.124Z,99158.09
2023-03-14T08:07:46.132Z,99150.91
2023-03-14T08:10:49.306Z,99155.50
2023-03-14T08:13:52.769Z,99147.47
2023-03-14T08:16:55.743Z,99137.91
2023-03-14T08:19:58.568Z,99136.19
2023-03-14T08:23:02.194Z,99128.03
2023-03-14T08:26:05.377Z,99118.34
2023-03-14T08:29:09.346Z,99115.13
2023-03-14T08:32:14.058Z,99115.41
2023-03-14T08:35:17.873Z,99119.44
2023-03-14T08:38:21.338Z,99099.69
2023-03-14T08:41:24.414Z,99089.91
2023-03-14T08:44:28.228Z,99087.66
2023-03-14T08:47:32.104Z,99077.13
2023-03-14T08:50:36.609Z,99075.63
2023-03-14T08:53:40.039Z,99077.66
2023-03-14T08:56:43.269Z,99078.88
2023-03-14T08:59:46.868Z,99077.38
2023-03-14T09:02:50.211Z,99072.81
2023-03-14T09:05:53.649Z,99060.31
2023-03-14T09:08:56.692Z,99057.50
2023-03-14T09:12:00.207Z,99052.22
2023-03-14T09:15:04.014Z,99054.03
2023-03-14T09:18:07.550Z,99035.72
2023-03-14T09:21:10.652Z,99028.16
2023-03-14T09:24:14.131Z,99045.44
2023-03-14T09:27:17.039Z,99029.72
2023-03-14T09:30:20.735Z,99041.66
2023-03-14T09:33:24.068Z,99045.41
2023-03-14T09:36:27.194Z,99030.97
2023-03-14T09:39:30.669Z,99023.19
2023-03-14T09:42:33.829Z,99024.75
2023-03-14T09:45:41.613Z,99019.63
2023-03-14T09:48:45.155Z,99009.25
2023-03-14T09:51:55.602Z,99019.09
2023-03-14T09:55:03.970Z,99007.81
2023-03-14T09:58:13.555Z,98995.78
2023-03-14T10:01:21.939Z,99000.50
2023-03-14T10:04:25.370Z,99010.03
2023-03-14T10:07:33.627Z,99000.19
2023-03-14T10:10:38.257Z,99002.34
2023-03-14T10:14:05.345Z,99011.72
2023-03-14T10:17:14.557Z,99009.16
2023-03-14T10:20:28.638Z,99000.25
2023-03-14T10:23:34.890Z,98998.72
2023-03-14T10:26:38.520Z,98994.56
2023-03-14T10:29:59.556Z,98996.50
2023-03-14T10:33:11.188Z,98989.63
2023-03-14T10:36:23.990Z,98994.31
2023-03-14T10:39:54.198Z,98994.97
2023-03-14T10:42:59.427Z,98988.44
2023-03-14T10:46:13.724Z,98979.81
2023-03-14T10:49:38.426Z,98968.75
2023-03-14T10:53:03.434Z,98971.19
2023-03-14T10:56:07.251Z,98965.28
2023-03-14T10:59:16.634Z,98955.84
2023-03-14T11:02:40.845Z,98946.81
2023-03-14T11:05:55.292Z,98956.94
2023-03-14T11:09:19.332Z,98945.44
2023-03-14T11:12:47.221Z,98941.22
2023-03-14T11:16:12.196Z,98940.94
2023-03-14T11:19:48.059Z,98954.91
2023-03-14T11:22:51.299Z,98946.41
2023-03-14T11:26:01.753Z,98937.34
2023-03-14T11:29:35.898Z,98939.25
2023-03-14T11:33:10.164Z,98910.19
2023-03-14T11:36:22.957Z,98906.91
2023-03-14T11:39:30.972Z,98899.97
2023-03-14T11:42:34.575Z,98889.88
2023-03-14T11:45:41.042Z,98874.00
2023-03-14T11:48:54.090Z,98876.25
2023-03-14T11:52:02.793Z,98867.41
2023-03-14T11:55:18.970Z,98851.50
2023-03-14T11:58:27.340Z,98857.59
2023-03-14T12:02:01.973Z,98849.53
2023-03-14T12:05:23.689Z,98844.19
2023-03-14T12:08:38.865Z,98833.34
2023-03-14T12:11:51.939Z,98831.25
2023-03-14T12:15:00.959Z,98822.69
2023-03-14T12:18:04.176Z,98812.44
2023-03-14T12:21:10.643Z,98808.56
2023-03-14T12:24:23.937Z,98813.41
2023-03-14T12:27:56.153Z,98806.59
2023-03-14T12:31:31.078Z,98800.56
2023-03-14T12:34:43.294Z,98802.13
2023-03-14T12:37:48.979Z,98796.31
2023-03-14T12:41:04.878Z,98794.31
2023-03-14T12:44:29.793Z,98785.09
2023-03-14T12:47:33.117Z,98777.78
2023-03-14T12:50:42.225Z,98778.59
2023-03-14T12:54:15.697Z,98776.00
2023-03-14T12:57:34.681Z,98779.59
2023-03-14T13:00:43.388Z,98782.19
2023-03-14T13:03:46.786Z,98777.75
2023-03-14T13:06:54.891Z,98759.34
2023-03-14T13:10:03.732Z,98771.44
2023-03-14T13:13:07.835Z,98776.00
2023-03-14T13:16:21.218Z,98772.47
2023-03-14T13:19:30.724Z,98775.78
2023-03-14T13:22:38.149Z,98779.09
2023-03-14T13:25:41.209Z,98779.78
2023-03-14T13:28:44.905Z,98776.31
2023-03-14T13:31:50.797Z,98768.72
2023-03-14T13:34:57.673Z,98764.25
2023-03-14T13:38:17.599Z,98766.31
2023-03-14T13:41:21.081Z,98769.53
2023-03-14T13:44:38.134Z,98766.66
2023-03-14T13:47:41.987Z,98768.38
2023-03-14T13:50:51.051Z,98771.09
2023-03-14T13:53:56.643Z,98769.00
2023-03-14T13:57:05.159Z,98775.84
2023-03-14T14:00:18.146Z,98761.78
2023-03-14T14:03:23.398Z,98775.44
2023-03-14T14:06:33.405Z,98769.22
2023-03-14T14:09:40.533Z,98779.19
2023-03-14T14:12:55.022Z,98793.59
2023-03-14T14:16:01.402Z,98798.47
2023-03-14T14:19:05.443Z,98804.31
2023-03-14T14:22:13.079Z,98804.22
2023-03-14T14:25:17.275Z,98817.25
2023-03-14T14:28:31.448Z,98816.16
2023-03-14T14:31:34.545Z,98825.25
2023-03-14T14:34:42.082Z,98825.06
2023-03-14T14:37:46.226Z,98819.88
2023-03-14T14:40:55.164Z,98816.66
2023-03-14T14:43:59.251Z,98813.63
2023-03-14T14:47:06.239Z,98808.63
2023-03-14T14:50:34.561Z,98816.63
2023-03-14T14:53:39.229Z,98818.13
2023-03-14T14:56:49.258Z,98813.63
2023-03-14T14:59:56.722Z,98818.28
2023-03-14T15:03:01.263Z,98812.00
2023-03-14T15:06:05.827Z,98813.41
2023-03-14T15:09:12.165Z,98831.00
2023-03-14T15:12:15.596Z,98832.47
2023-03-14T15:15:20.487Z,98856.69
2023-03-14T15:18:27.946Z,98844.53
2023-03-14T15:21:33.548Z,98861.44
2023-03-14T15:24:37.063Z,98865.34
2023-03-14T15:27:44.048Z,98864.72
2023-03-14T15:30:51.029Z,98875.72
2023-03-14T15:33:54.913Z,98870.75
2023-03-14T15:36:58.075Z,98877.66
2023-03-14T15:40:01.517Z,98882.34
2023-03-14T15:43:05.105Z,98896.56
2023-03-14T15:46:10.907Z,98914.63
2023-03-14T15:49:14.139Z,98908.13
2023-03-14T15:52:17.458Z,98915.03
2023-03-14T15:55:20.828Z,98914.75
2023-03-14T15:58:24.338Z,98914.97
2023-03-14T16:01:27.892Z,98927.25
2023-03-14T16:04:31.447Z,98925.47
2023-03-14T16:07:34.585Z,98936.63
2023-03-14T16:10:39.793Z,98937.47
2023-03-14T16:13:42.735Z,98933.28
2023-03-14T16:16:45.632Z,98940.34
2023-03-14T16:19:49.058Z,98935.97
2023-03-14T16:22:52.322Z,98941.44
2023-03-14T16:25:56.450Z,98946.91
2023-03-14T16:28:59.731Z,98947.31
2023-03-14T16:32:03.340Z,98948.03
2023-03-14T16:35:07.384Z,98936.28
2023-03-14T16:38:10.953Z,98942.59
2023-03-14T16:41:19.809Z,98937.66
2023-03-14T16:44:23.164Z,98943.31
2023-03-14T16:47:26.603Z,98945.81
2023-03-14T16:50:32.215Z,98951.41
2023-03-14T16:53:35.968Z,98955.88
2023-03-14T16:56:39.023Z,98952.38
2023-03-14T16:59:42.195Z,98957.94
2023-03-14T17:02:45.402Z,98956.91
2023-03-14T17:05:50.367Z,98948.00
2023-03-14T17:08:55.977Z,98965.00
2023-03-14T17:11:59.320Z,98973.66
2023-03-14T17:15:02.727Z,98975.94
2023-03-14T17:18:06.782Z,98969.72
2023-03-14T17:21:10.036Z,98967.75
2023-03-14T17:24:13.693Z,98960.16
2023-03-14T17:27:20.217Z,98963.06
2023-03-14T17:30:24.221Z,98973.81
2023-03-14T17:33:28.253Z,98975.03
2023-03-14T17:36:32.790Z,98976.25
2023-03-14T17:39:35.894Z,98975.91
2023-03-14T17:42:39.599Z,98977.91
2023-03-14T17:45:43.803Z,98997.41
2023-03-14T17:48:49.022Z,99006.50
2023-03-14T17:51:52.785Z,99018.16
2023-03-14T17:54:56.157Z,99023.47
2023-03-14T17:57:59.384Z,99018.19
2023-03-14T18:01:16.675Z,99014.97
2023-03-14T18:04:20.678Z,99024.66
2023-03-14T18:07:23.962Z,99015.53
2023-03-14T18:10:27.197Z,99026.31
2023-03-14T18:13:30.352Z,99006.16
2023-03-14T18:16:34.183Z,99021.50
2023-03-14T18:19:37.380Z,99027.13
2023-03-14T18:22:42.312Z,99029.41
2023-03-14T18:25:45.602Z,99030.78
2023-03-14T18:28:49.052Z,99033.19
2023-03-14T18:31:52.550Z,99040.91
2023-03-14T18:34:56.273Z,99035.78
2023-03-14T18:37:59.574Z,99040.47
2023-03-14T18:41:07.736Z,99047.88
2023-03-14T18:44:11.829Z,99052.56
2023-03-14T18:47:15.675Z,99051.34
2023-03-14T18:50:19.587Z,99074.34
2023-03-14T18:53:28.440Z,99086.25
2023-03-14T18:56:31.876Z,99090.78
2023-03-14T18:59:35.335Z,99086.69
2023-03-14T19:02:38.907Z,99087.31
2023-03-14T19:06:01.192Z,99093.03
2023-03-14T19:09:06.312Z,99092.13
2023-03-14T19:12:09.839Z,99092.00
2023-03-14T19:15:13.051Z,99091.88
2023-03-14T19:18:17.077Z,99086.25
2023-03-14T19:21:30.123Z,99068.28
2023-03-14T19:24:35.050Z,99075.06
2023-03-14T19:27:39.145Z,99071.41
2023-03-14T19:30:43.223Z,99061.09
2023-03-14T19:33:47.325Z,99055.91
2023-03-14T19:36:51.104Z,99061.81
2023-03-14T19:39:54.582Z,99062.16
2023-03-14T19:42:58.653Z,99063.41
2023-03-14T19:46:01.797Z,99070.53
2023-03-14T19:49:06.022Z,99061.34
2023-03-14T19:52:08.962Z,99063.56
2023-03-14T19:58:19.196Z,99079.19
2023-03-14T20:01:24.538Z,99074.47
2023-03-14T20:04:28.106Z,99079.72
2023-03-14T20:07:31.980Z,99077.66
2023-03-14T20:10:36.590Z,99092.50
2023-03-14T20:13:40.670Z,99084.34
2023-03-14T20:16:44.526Z,99085.31
2023-03-14T20:19:47.878Z,99090.19
2023-03-14T20:22:51.490Z,99099.69
2023-03-14T20:25:59.821Z,99099.84
2023-03-14T20:29:03.936Z,99098.75
2023-03-14T20:32:09.648Z,99098.75
2023-03-14T20:35:23.708Z,99089.13
2023-03-14T20:38:28.223Z,99089.81
2023-03-14T20:41:32.255Z,99097.41
2023-03-14T20:44:35.077Z,99095.16
2023-03-14T20:47:38.076Z,99095.00
2023-03-14T20:50:41.866Z,99093.38
2023-03-14T20:53:45.771Z,99100.88
2023-03-14T20:56:48.813Z,99092.44
2023-03-14T20:59:52.012Z,99092.94
2023-03-14T21:02:55.312Z,99098.25
2023-03-14T21:05:58.903Z,99108.88
2023-03-14T21:09:05.726Z,99105.28
2023-03-14T21:12:09.511Z,99114.59
2023-03-14T21:15:14.688Z,99115.09
2023-03-14T21:18:17.882Z,99118.25
2023-03-14T21:21:22.344Z,99112.88
2023-03-14T21:24:26.240Z,99112.38
2023-03-14T21:27:29.487Z,99113.78
2023-03-14T21:30:35.537Z,99121.53
2023-03-14T21:33:39.633Z,99117.63
2023-03-14T21:36:43.468Z,99122.63
2023-03-14T21:39:46.692Z,99129.25
2023-03-14T21:42:54.493Z,99133.31
2023-03-14T21:45:57.805Z,99143.06
2023-03-14T21:49:00.733Z,99155.09
2023-03-14T21:52:06.151Z,99126.84
2023-03-14T21:55:11.629Z,99135.56
2023-03-14T21:58:14.913Z,99129.72
2023-03-14T22:01:18.373Z,99130.50
2023-03-14T22:04:26.080Z,99132.56
2023-03-14T22:07:28.931Z,99134.66
2023-03-14T22:10:31.969Z,99130.50
2023-03-14T22:13:35.141Z,99141.00
2023-03-14T22:16:38.154Z,99150.50
2023-03-14T22:19:41.163Z,99162.31
2023-03-14T22:22:44.594Z,99165.47
2023-03-14T22:25:51.094Z,99172.75
2023-03-14T22:28:54.309Z,99176.91
2023-03-14T22:31:57.586Z,99184.44
2023-03-14T22:35:00.698Z,99183.63
2023-03-14T22:38:03.950Z,99174.41
2023-03-14T22:41:07.270Z,99179.91
2023-03-14T22:44:10.546Z,99185.88
2023-03-14T22:47:13.738Z,99181.47
2023-03-14T22:50:17.551Z,99185.06
2023-03-14T22:53:21.047Z,99186.41
2023-03-14T22:56:24.326Z,99194.44
2023-03-14T22:59:27.661Z,99192.53
2023-03-14T23:02:30.606Z,99200.41
2023-03-14T23:05:33.945Z,99208.53
2023-03-14T23:08:38.169Z,99212.78
2023-03-14T23:11:41.825Z,99207.34
2023-03-14T23:14:44.994Z,99204.44
2023-03-14T23:17:48.020Z,99196.81
2023-03-14T23:20:51.151Z,99181.63
2023-03-14T23:23:54.996Z,99184.66
2023-03-14T23:26:58.211Z,99187.06
2023-03-14T23:30:01.812Z,99182.50
2023-03-14T23:33:07.011Z,99206.72
2023-03-14T23:36:13.367Z,99196.72
2023-03-14T23:39:16.859Z,99199.09
2023-03-14T23:42:20.700Z,99194.00
2023-03-14T23:45:24.255Z,99201.28
2023-03-14T23:48:30.114Z,99192.91
2023-03-14T23:51:33.278Z,99202.78
2023-03-14T23:54:36.597Z,99210.28
2023-03-14T23:57:39.798Z,99201.59
